createdAt,value
2022-07-26T00:02:28.677Z,1.30
2022-07-26T00:07:25.039Z,0.77
2022-07-26T00:12:22.805Z,0.98
2022-07-26T00:22:34.343Z,1.40
2022-07-26T00:27:30.805Z,0.80
2022-07-26T00:32:27.278Z,1.23
2022-07-26T00:37:24.945Z,1.98
2022-07-26T00:42:21.559Z,1.00
2022-07-26T00:47:18.228Z,1.40
2022-07-26T00:52:14.827Z,2.15
2022-07-26T00:57:13.366Z,1.00
2022-07-26T01:02:11.077Z,1.33
2022-07-26T01:07:15.039Z,1.20
2022-07-26T01:12:12.728Z,1.40
2022-07-26T01:17:09.202Z,1.00
2022-07-26T01:22:07.137Z,1.52
2022-07-26T01:27:05.444Z,1.08
2022-07-26T01:32:04.042Z,1.65
2022-07-26T01:37:00.757Z,1.13
2022-07-26T01:41:57.213Z,1.20
2022-07-26T01:46:53.590Z,1.00
2022-07-26T01:51:50.026Z,1.35
2022-07-26T01:56:46.494Z,1.63
2022-07-26T02:01:42.885Z,1.80
2022-07-26T02:06:39.252Z,1.45
2022-07-26T02:11:35.923Z,1.55
2022-07-26T02:16:32.336Z,1.65
2022-07-26T02:21:28.809Z,1.30
2022-07-26T02:26:25.156Z,1.58
2022-07-26T02:31:21.634Z,1.58
2022-07-26T02:36:18.433Z,1.20
2022-07-26T02:41:14.849Z,1.80
2022-07-26T02:46:11.345Z,1.75
2022-07-26T02:51:08.014Z,1.23
2022-07-26T02:56:05.024Z,1.10
2022-07-26T03:01:01.383Z,1.30
2022-07-26T03:05:58.041Z,1.48
2022-07-26T03:10:54.373Z,1.50
2022-07-26T03:15:50.834Z,1.55
2022-07-26T03:20:48.013Z,1.92
2022-07-26T03:25:44.403Z,1.30
2022-07-26T03:30:40.924Z,1.60
2022-07-26T03:35:37.336Z,1.17
2022-07-26T03:40:34.063Z,2.17
2022-07-26T03:45:30.763Z,1.60
2022-07-26T03:50:27.240Z,1.55
2022-07-26T03:55:42.439Z,1.73
2022-07-26T04:00:38.913Z,1.30
2022-07-26T04:05:36.173Z,2.22
2022-07-26T04:10:32.619Z,1.35
2022-07-26T04:15:29.031Z,2.25
2022-07-26T04:20:25.496Z,2.47
2022-07-26T04:25:21.929Z,2.00
2022-07-26T04:30:18.359Z,1.67
2022-07-26T04:35:15.704Z,2.72
2022-07-26T04:40:17.041Z,1.88
2022-07-26T04:45:14.005Z,2.38
2022-07-26T04:50:12.076Z,2.03
2022-07-26T04:55:10.359Z,2.08
2022-07-26T05:00:21.286Z,1.70
2022-07-26T05:05:19.061Z,2.42
2022-07-26T05:10:17.437Z,2.30
2022-07-26T05:15:15.518Z,2.47
2022-07-26T05:20:15.599Z,2.28
2022-07-26T05:25:12.019Z,2.95
2022-07-26T05:30:09.954Z,2.55
2022-07-26T05:40:05.309Z,1.90
2022-07-26T05:45:01.669Z,2.22
2022-07-26T05:49:58.181Z,2.63
2022-07-26T05:54:54.593Z,2.70
2022-07-26T05:59:50.990Z,3.03
2022-07-26T06:04:47.774Z,3.47
2022-07-26T06:09:44.376Z,5.00
2022-07-26T06:14:40.798Z,3.88
2022-07-26T06:19:37.627Z,4.25
2022-07-26T06:24:34.000Z,3.40
2022-07-26T06:29:32.494Z,3.50
2022-07-26T06:34:29.562Z,3.28
2022-07-26T06:39:26.152Z,3.00
2022-07-26T06:44:22.898Z,3.30
2022-07-26T06:49:22.760Z,3.45
2022-07-26T06:54:19.578Z,3.70
2022-07-26T06:59:16.006Z,3.30
2022-07-26T07:04:12.573Z,3.45
2022-07-26T07:09:09.085Z,3.47
2022-07-26T07:14:07.330Z,2.85
2022-07-26T07:19:03.898Z,2.95
2022-07-26T07:24:00.224Z,2.50
2022-07-26T07:28:58.535Z,2.50
2022-07-26T07:33:55.093Z,2.85
2022-07-26T07:38:51.892Z,3.10
2022-07-26T07:43:48.398Z,2.63
2022-07-26T07:48:47.529Z,3.13
2022-07-26T07:53:56.372Z,3.28
2022-07-26T07:58:53.815Z,2.53
2022-07-26T08:03:50.960Z,3.40
2022-07-26T08:08:48.454Z,3.92
2022-07-26T08:13:47.980Z,2.60
2022-07-26T08:18:56.290Z,3.33
2022-07-26T08:23:54.506Z,2.63
2022-07-26T08:29:00.076Z,2.92
2022-07-26T08:34:05.606Z,3.17
2022-07-26T08:39:01.953Z,2.25
2022-07-26T08:44:08.272Z,1.98
2022-07-26T08:49:07.057Z,2.78
2022-07-26T08:54:06.219Z,2.15
2022-07-26T08:59:17.146Z,2.28
2022-07-26T09:04:31.824Z,2.30
2022-07-26T09:09:30.178Z,1.20
2022-07-26T09:14:37.341Z,1.55
2022-07-26T09:19:34.906Z,1.40
2022-07-26T09:24:47.598Z,1.27
2022-07-26T09:29:50.429Z,1.52
2022-07-26T09:34:53.196Z,1.40
2022-07-26T09:39:58.158Z,1.77
2022-07-26T09:44:56.025Z,1.50
2022-07-26T09:50:11.731Z,1.70
2022-07-26T09:55:09.334Z,2.15
2022-07-26T10:00:07.750Z,1.70
2022-07-26T10:05:05.673Z,1.77
2022-07-26T10:10:07.145Z,1.80
2022-07-26T10:15:03.920Z,2.17
2022-07-26T10:20:09.405Z,2.85
2022-07-26T10:25:19.868Z,3.05
2022-07-26T10:30:19.280Z,2.33
2022-07-26T10:35:34.393Z,3.00
2022-07-26T10:40:31.600Z,2.35
2022-07-26T10:45:28.324Z,3.58
2022-07-26T10:50:32.826Z,2.90
2022-07-26T10:55:29.278Z,3.05
2022-07-26T11:00:26.280Z,2.72
2022-07-26T11:05:28.670Z,1.10
2022-07-26T11:10:33.526Z,1.15
2022-07-26T11:15:30.003Z,1.30
2022-07-26T11:20:29.796Z,1.88
2022-07-26T11:25:26.551Z,1.23
2022-07-26T11:30:22.964Z,1.40
2022-07-26T11:35:21.362Z,1.48
2022-07-26T11:40:43.442Z,0.90
2022-07-26T11:45:40.358Z,0.85
2022-07-26T11:50:36.991Z,0.80
2022-07-26T11:55:33.342Z,0.80
2022-07-26T12:00:29.838Z,1.10
2022-07-26T12:05:26.471Z,1.10
2022-07-26T12:10:23.350Z,1.02
2022-07-26T12:15:19.680Z,1.77
2022-07-26T12:20:18.031Z,1.48
2022-07-26T12:25:28.274Z,1.67
2022-07-26T12:30:25.736Z,1.30
2022-07-26T12:35:33.515Z,1.63
2022-07-26T12:40:31.680Z,1.88
2022-07-26T12:45:33.082Z,1.85
2022-07-26T12:50:32.745Z,1.60
2022-07-26T12:55:29.451Z,1.60
2022-07-26T13:00:25.909Z,1.20
2022-07-26T13:05:23.688Z,1.80
2022-07-26T13:10:33.130Z,1.70
2022-07-26T13:15:35.054Z,2.10
2022-07-26T13:20:35.955Z,2.42
2022-07-26T13:25:37.031Z,3.47
2022-07-26T13:30:38.561Z,1.17
2022-07-26T13:35:36.341Z,0.77
2022-07-26T13:40:32.719Z,0.77
2022-07-26T13:45:29.794Z,0.95
2022-07-26T13:50:29.775Z,0.90
2022-07-26T13:55:26.254Z,0.60
2022-07-26T14:00:22.775Z,1.13
2022-07-26T14:05:19.276Z,1.20
2022-07-26T14:10:16.235Z,1.13
2022-07-26T14:15:18.082Z,1.50
2022-07-26T14:20:18.256Z,2.38
2022-07-26T14:25:14.902Z,1.38
2022-07-26T14:30:12.099Z,1.20
2022-07-26T14:35:09.327Z,1.30
2022-07-26T14:40:07.305Z,1.20
2022-07-26T14:45:03.991Z,1.58
2022-07-26T14:50:05.817Z,1.38
2022-07-26T14:55:03.499Z,1.30
2022-07-26T14:59:59.959Z,2.17
2022-07-26T15:04:57.126Z,1.30
2022-07-26T15:09:53.456Z,1.05
2022-07-26T15:14:49.787Z,0.88
2022-07-26T15:19:46.123Z,1.38
2022-07-26T15:24:42.515Z,0.90
2022-07-26T15:29:38.927Z,1.08
2022-07-26T15:34:35.459Z,1.33
2022-07-26T15:39:31.869Z,1.02
2022-07-26T15:44:28.342Z,1.60
2022-07-26T15:49:24.763Z,1.52
2022-07-26T15:54:21.260Z,1.55
2022-07-26T15:59:17.654Z,1.58
2022-07-26T16:04:14.270Z,1.50
2022-07-26T16:09:17.884Z,1.57
2022-07-26T16:14:16.426Z,1.52
2022-07-26T16:19:13.518Z,1.27
2022-07-26T16:24:10.254Z,1.75
2022-07-26T16:29:06.613Z,1.20
2022-07-26T16:34:02.966Z,1.50
2022-07-26T16:38:59.583Z,1.40
2022-07-26T16:43:57.074Z,1.20
2022-07-26T16:48:53.569Z,1.50
2022-07-26T16:53:51.658Z,0.95
2022-07-26T16:58:48.201Z,1.33
2022-07-26T17:03:45.098Z,1.20
2022-07-26T17:08:41.742Z,1.20
2022-07-26T17:13:38.794Z,0.83
2022-07-26T17:18:35.628Z,0.77
2022-07-26T17:23:32.179Z,1.10
2022-07-26T17:28:28.643Z,0.90
2022-07-26T17:33:25.238Z,0.88
2022-07-26T17:38:21.641Z,0.80
2022-07-26T17:43:19.452Z,0.90
2022-07-26T17:48:15.787Z,0.73
2022-07-26T17:53:12.156Z,0.80
2022-07-26T17:58:08.497Z,1.45
2022-07-26T18:03:04.856Z,0.88
2022-07-26T18:08:01.406Z,1.00
2022-07-26T18:12:57.782Z,1.38
2022-07-26T18:17:54.154Z,1.20
2022-07-26T18:22:50.693Z,1.00
2022-07-26T18:27:47.163Z,0.95
2022-07-26T18:32:43.470Z,1.08
2022-07-26T18:37:39.874Z,1.10
2022-07-26T18:42:36.701Z,1.30
2022-07-26T18:47:33.168Z,0.90
2022-07-26T18:52:31.986Z,1.30
2022-07-26T18:57:29.003Z,1.50
2022-07-26T19:02:25.726Z,1.58
2022-07-26T19:07:22.223Z,1.95
2022-07-26T19:12:18.579Z,1.92
2022-07-26T19:17:14.970Z,0.85
2022-07-26T19:22:11.477Z,1.45
2022-07-26T19:27:09.404Z,1.10
2022-07-26T19:32:06.188Z,1.52
2022-07-26T19:37:03.000Z,1.30
2022-07-26T19:41:59.419Z,1.15
2022-07-26T19:46:57.894Z,1.48
2022-07-26T19:51:54.466Z,1.33
2022-07-26T19:56:50.910Z,1.30
2022-07-26T20:01:52.094Z,1.67
2022-07-26T20:06:50.850Z,1.05
2022-07-26T20:11:50.788Z,1.75
2022-07-26T20:16:50.541Z,1.67
2022-07-26T20:21:50.660Z,0.90
2022-07-26T20:26:47.745Z,1.15
2022-07-26T20:31:44.791Z,1.77
2022-07-26T20:36:41.202Z,0.75
2022-07-26T20:41:37.691Z,1.33
2022-07-26T20:46:39.930Z,1.25
2022-07-26T20:51:36.559Z,1.60
2022-07-26T20:56:33.785Z,1.23
2022-07-26T21:01:31.291Z,1.23
2022-07-26T21:06:29.191Z,1.42
2022-07-26T21:11:26.154Z,1.15
2022-07-26T21:16:22.592Z,0.90
2022-07-26T21:21:19.012Z,0.90
2022-07-26T21:26:15.480Z,1.08
2022-07-26T21:31:12.575Z,0.98
2022-07-26T21:36:08.901Z,0.70
2022-07-26T21:41:05.271Z,1.08
2022-07-26T21:46:01.775Z,1.48
2022-07-26T21:50:58.194Z,1.42
2022-07-26T21:55:54.567Z,0.80
2022-07-26T22:00:51.076Z,2.08
2022-07-26T22:05:47.431Z,1.02
2022-07-26T22:10:45.360Z,1.17
2022-07-26T22:15:42.329Z,1.42
2022-07-26T22:20:39.472Z,0.70
2022-07-26T22:25:36.786Z,0.90
2022-07-26T22:30:33.253Z,0.87
2022-07-26T22:35:35.009Z,0.88
2022-07-26T22:40:33.306Z,1.45
2022-07-26T22:45:30.985Z,0.85
2022-07-26T22:50:27.920Z,0.77
2022-07-26T22:55:24.296Z,0.90
2022-07-26T23:00:20.963Z,0.73
2022-07-26T23:05:17.627Z,0.50
2022-07-26T23:10:17.052Z,0.95
2022-07-26T23:15:13.523Z,1.02
2022-07-26T23:20:10.191Z,0.88
2022-07-26T23:25:06.849Z,1.70
2022-07-26T23:30:03.519Z,1.10
2022-07-26T23:34:59.854Z,1.27
2022-07-26T23:39:56.247Z,0.50
2022-07-26T23:44:52.582Z,0.93
2022-07-26T23:49:49.154Z,0.60
2022-07-26T23:54:45.534Z,1.23
2022-07-26T23:59:41.895Z,1.02
